Latest Weather Observations for Rottnest Island

IDW60901

Issued at 4:55 pm WST Wednesday 30 July 2014 (issued every 10 minutes, with the page automatically refreshed every 10 minutes)

About weather observations | Map of Perth area stations | Latest observations for Perth area | Other Formats
Station Details ID: 009193 Name: ROTTNEST ISLAND Lat: -32.01 Lon: 115.50 Height: 43.1 m
Data from the previous 72 hours. | See also: Recent months at Rottnest Island
Date/Time
WST
Tmp

°C
App
Tmp
°C
Dew
Point
°C
Rel
Hum
%
Delta-T

°C
Wind Press
QNH
hPa
Press
MSL
hPa
Rain
since
9 am
mm
Dir
 
Spd
km/h
Gust
km/h
Spd
kts
Gust
kts
30/04:30pm 17.3 12.6 7.9 54 4.8 WSW 22 32 12 17 1021.4 - 0.0
30/04:00pm 17.6 12.8 10.2 62 3.9 W 26 33 14 18 1021.4 1021.4 0.0
30/03:30pm 17.4 12.4 9.6 60 4.1 W 26 35 14 19 1021.4 - 0.0
30/03:00pm 17.5 11.6 9.2 58 4.3 W 30 41 16 22 1021.4 1021.4 0.0
30/02:30pm 17.6 11.8 9.5 59 4.3 W 30 39 16 21 1021.1 - 0.0
30/02:00pm 17.7 12.2 9.3 58 4.4 W 28 35 15 19 1021.1 1021.1 0.0
30/01:30pm 17.6 12.2 9.5 59 4.3 W 28 37 15 20 1021.3 - 0.0
30/01:00pm 17.6 12.5 9.2 58 4.4 W 26 35 14 19 1021.4 1021.4 0.0
30/12:30pm 17.6 12.7 9.8 60 4.1 W 26 32 14 17 1021.4 - 0.0
30/12:00pm 17.0 11.7 9.9 63 3.7 WNW 28 37 15 20 1021.7 1021.7 0.0
30/11:30am 17.0 12.3 9.4 61 4.0 WNW 24 32 13 17 1021.8 - 0.0
30/11:00am 16.9 11.8 9.1 60 4.0 WNW 26 33 14 18 1022.2 1022.2 0.0
30/10:30am 16.7 11.9 8.9 60 4.0 WNW 24 32 13 17 1022.4 - 0.0
30/10:00am 16.7 11.1 8.9 60 4.0 W 28 37 15 20 1022.6 1022.6 0.0
30/09:30am 16.6 11.9 9.3 62 3.8 W 24 35 13 19 1022.5 - 0.0
30/09:00am 16.5 11.8 9.2 62 3.8 W 24 32 13 17 1022.2 1022.2 0.0
30/08:30am 16.4 12.1 9.3 63 3.7 W 22 30 12 16 1022.0 - 0.0
30/08:00am 16.5 11.8 9.4 63 3.7 NW 24 28 13 15 1021.8 1021.8 0.0
30/07:30am 16.3 12.0 9.3 63 3.6 W 22 30 12 16 1021.6 - 0.0
30/07:00am 16.3 11.4 8.5 60 4.0 WNW 24 33 13 18 1021.6 1021.6 0.0
30/06:30am 16.4 11.6 8.9 61 3.9 W 24 33 13 18 1021.6 - 0.0
30/06:00am 16.3 11.7 9.5 64 3.5 W 24 32 13 17 1021.5 1021.5 0.0
30/05:30am 16.3 11.1 9.0 62 3.8 WNW 26 35 14 19 1021.5 - 0.0
30/05:00am 16.3 10.6 8.3 59 4.1 WNW 28 35 15 19 1021.5 1021.5 0.0
30/04:30am 16.4 13.0 9.3 63 3.7 W 17 24 9 13 1021.4 - 0.0
30/04:00am 16.5 11.7 9.0 61 3.9 W 24 32 13 17 1021.5 1021.5 0.0
30/03:30am 16.5 11.7 8.7 60 4.0 W 24 33 13 18 1021.6 - 0.0
30/03:00am 16.4 11.8 9.6 64 3.5 W 24 35 13 19 1021.8 1021.8 0.0
30/02:30am 16.3 11.7 9.7 65 3.5 WNW 24 32 13 17 1022.0 - 0.0
30/02:00am 16.4 12.2 9.6 64 3.5 WNW 22 28 12 15 1022.4 1022.4 0.0
30/01:30am 16.2 11.4 8.7 61 3.8 W 24 32 13 17 1022.8 - 0.0
30/01:00am 16.3 11.3 9.5 64 3.5 WNW 26 39 14 21 1022.7 1022.7 0.0
30/12:30am 16.3 10.7 8.8 61 3.9 WNW 28 37 15 20 1022.8 - 0.0
30/12:00am 16.4 12.2 9.8 65 3.4 WNW 22 30 12 16 1022.9 1022.9 0.0
 
Date/Time
WST
Tmp

°C
App
Tmp
°C
Dew
Point
°C
Rel
Hum
%
Delta-T

°C
Wind Press
QNH
hPa
Press
MSL
hPa
Rain
since
9 am
mm
Dir
 
Spd
km/h
Gust
km/h
Spd
kts
Gust
kts
29/11:30pm 16.4 10.3 8.4 59 4.1 WNW 30 37 16 20 1023.1 - 0.0
29/11:00pm 16.5 12.8 9.4 63 3.7 NW 19 26 10 14 1023.1 1023.1 0.0
29/10:30pm 16.5 12.1 9.0 61 3.9 WNW 22 30 12 16 1023.2 - 0.0
29/10:00pm 16.5 11.5 8.2 58 4.2 WNW 24 33 13 18 1023.1 1023.1 0.0
29/09:30pm 16.3 12.9 9.0 62 3.8 W 17 24 9 13 1023.2 - 0.0
29/09:00pm 16.4 11.7 9.1 62 3.8 W 24 33 13 18 1023.2 1023.2 0.0
29/08:30pm 16.6 11.9 9.1 61 3.9 W 24 32 13 17 1023.3 - 0.0
29/08:00pm 16.5 12.0 10.1 66 3.4 W 24 32 13 17 1023.2 1023.2 0.0
29/07:30pm 16.5 12.8 10.1 66 3.4 WNW 20 26 11 14 1023.2 - 0.0
29/07:00pm 16.3 11.5 8.8 61 3.8 WNW 24 32 13 17 1023.3 1023.3 0.0
29/06:30pm 16.4 11.2 8.9 61 3.9 WNW 26 32 14 17 1023.3 - 0.0
29/06:00pm 16.5 11.2 8.5 59 4.1 WNW 26 35 14 19 1023.1 1023.1 0.0
29/05:30pm 16.5 11.1 9.4 63 3.7 WNW 28 37 15 20 1022.8 - 0.0
29/05:00pm 17.1 12.6 10.2 64 3.6 W 24 30 13 16 1022.7 1022.7 0.0
29/04:30pm 17.0 12.3 10.8 67 3.3 W 26 32 14 17 1022.8 - 0.0
29/04:00pm 18.2 15.4 11.5 65 3.7 WNW 17 22 9 12 1022.6 1022.6 0.0
29/03:30pm 16.0 10.7 11.2 73 2.6 NW 30 33 16 18 1022.9 - 0.0
29/03:00pm 17.6 13.3 10.7 64 3.7 W 24 30 13 16 1022.8 1022.8 0.0
29/02:30pm 18.2 13.5 10.8 62 4.0 WNW 26 33 14 18 1022.8 - 0.0
29/02:00pm 18.3 14.2 11.6 65 3.7 W 24 32 13 17 1022.7 1022.7 0.0
29/01:30pm 18.0 13.6 11.6 66 3.5 W 26 35 14 19 1022.9 - 0.0
29/01:00pm 16.8 14.0 11.3 70 3.0 NW 17 26 9 14 1023.0 1023.0 0.0
29/12:30pm 17.6 14.2 10.5 63 3.8 W 19 26 10 14 1023.2 - 0.0
29/12:00pm 17.6 14.3 10.9 65 3.6 W 19 26 10 14 1023.4 1023.4 0.0
29/11:30am 17.5 13.2 9.4 59 4.2 WNW 22 26 12 14 1023.7 - 0.0
29/11:00am 17.9 13.0 9.8 59 4.3 WNW 26 32 14 17 1023.9 1023.9 0.0
29/10:30am 17.5 13.0 9.9 61 4.0 W 24 32 13 17 1024.2 - 0.0
29/10:00am 17.2 12.8 11.7 70 3.0 W 26 35 14 19 1024.4 1024.4 0.0
29/09:30am 17.1 12.6 10.0 63 3.8 W 24 32 13 17 1024.4 - 0.0
29/09:00am 16.2 11.2 10.9 71 2.8 W 28 39 15 21 1024.3 1024.3 0.0
29/08:30am 16.3 12.6 10.2 67 3.2 W 20 28 11 15 1023.8 - 0.0
29/08:00am 15.9 11.9 9.1 64 3.5 WSW 20 28 11 15 1023.5 1023.5 0.0
29/07:30am 15.3 11.2 10.1 71 2.7 WSW 22 32 12 17 1023.1 - 0.0
29/07:00am 15.8 11.4 10.3 70 2.9 WSW 24 32 13 17 1022.8 1022.8 0.0
29/06:30am 16.0 10.5 10.5 70 2.9 W 30 41 16 22 1022.6 - 0.0
29/06:00am 16.5 12.7 9.2 62 3.8 W 19 32 10 17 1022.3 1022.3 0.0
29/05:30am 16.6 11.4 8.8 60 4.0 W 26 33 14 18 1022.2 - 0.0
29/05:00am 16.3 11.6 9.3 63 3.6 W 24 35 13 19 1022.0 1022.0 0.0
29/04:30am 16.5 12.9 10.4 67 3.2 W 20 32 11 17 1022.1 - 0.0
29/04:00am 16.7 11.8 9.9 64 3.6 W 26 35 14 19 1022.1 1022.1 0.0
29/03:30am 16.7 12.0 9.4 62 3.8 W 24 30 13 16 1022.1 - 0.0
29/03:00am 16.4 11.4 9.6 64 3.5 W 26 32 14 17 1022.3 1022.3 0.0
29/02:30am 16.4 11.8 9.6 64 3.6 W 24 32 13 17 1022.3 - 0.0
29/02:00am 16.6 12.1 10.0 65 3.5 W 24 32 13 17 1022.3 1022.3 0.0
29/01:30am 16.6 11.0 8.6 59 4.1 WNW 28 35 15 19 1022.5 - 0.0
29/01:00am 16.7 11.7 9.4 62 3.8 W 26 35 14 19 1022.7 1022.7 0.0
29/12:30am 16.8 12.2 10.9 68 3.2 W 26 35 14 19 1022.8 - 0.0
29/12:00am 16.7 12.4 10.8 68 3.1 W 24 33 13 18 1022.6 1022.6 0.0
 
Date/Time
WST
Tmp

°C
App
Tmp
°C
Dew
Point
°C
Rel
Hum
%
Delta-T

°C
Wind Press
QNH
hPa
Press
MSL
hPa
Rain
since
9 am
mm
Dir
 
Spd
km/h
Gust
km/h
Spd
kts
Gust
kts
28/11:30pm 16.5 12.4 11.6 73 2.7 W 24 32 13 17 1022.8 - 0.0
28/11:00pm 16.7 12.5 11.2 70 3.0 W 24 35 13 19 1022.9 1022.9 0.0
28/10:30pm 16.6 11.8 11.7 73 2.7 W 28 35 15 19 1023.2 - 0.0
28/10:00pm 16.7 11.6 10.5 67 3.3 W 28 33 15 18 1023.2 1023.2 0.0
28/09:30pm 16.7 11.7 10.8 68 3.2 W 28 35 15 19 1023.4 - 0.0
28/09:00pm 16.1 11.7 11.7 75 2.4 WSW 26 37 14 20 1023.3 1023.3 0.0
28/08:30pm 16.7 11.7 11.0 69 3.1 W 28 35 15 19 1023.2 - 0.0
28/08:00pm 16.4 12.3 11.3 72 2.7 W 24 39 13 21 1023.2 1023.2 0.0
28/07:30pm 16.3 11.6 10.8 70 2.9 W 26 37 14 20 1023.3 - 0.0
28/07:00pm 16.2 12.0 11.2 72 2.7 W 24 32 13 17 1023.0 1023.0 0.0
28/06:30pm 16.4 11.3 10.5 68 3.1 W 28 39 15 21 1022.8 - 0.0
28/06:00pm 16.1 10.4 11.3 73 2.6 W 32 43 17 23 1022.6 1022.6 0.0
28/05:30pm 16.9 11.0 10.5 66 3.4 W 32 39 17 21 1022.2 - 0.0
28/05:00pm 17.0 11.8 10.1 64 3.6 W 28 37 15 20 1022.3 1022.3 0.0
28/04:30pm 16.8 12.2 10.9 68 3.2 W 26 35 14 19 1022.2 - 0.0
28/04:00pm 17.5 11.6 8.9 57 4.4 WNW 30 39 16 21 1021.9 1021.9 0.0
28/03:30pm 17.8 12.2 8.6 55 4.8 WNW 28 35 15 19 1021.7 - 0.0
28/03:00pm 17.9 12.2 8.2 53 5.0 WNW 28 35 15 19 1021.6 1021.6 0.0
28/02:30pm 18.7 13.3 9.5 55 4.9 WNW 28 32 15 17 1021.9 - 0.0
28/01:00pm 18.3 12.2 9.6 57 4.6 W 32 37 17 20 1022.5 1022.5 0.0
28/12:30pm 18.4 12.5 9.2 55 4.8 W 30 37 16 20 1023.0 - 0.0
28/12:00pm 18.5 13.0 9.0 54 4.9 W 28 37 15 20 1023.3 1023.3 0.0
28/11:30am 17.7 13.7 11.7 68 3.3 WSW 24 32 13 17 1023.5 - 0.0
28/11:00am 18.3 12.8 10.4 60 4.2 W 30 37 16 20 1023.6 1023.6 0.0
28/10:30am 17.8 12.0 9.4 58 4.4 W 30 41 16 22 1023.6 - 0.0
28/10:00am 16.9 11.4 10.5 66 3.4 W 30 41 16 22 1023.6 1023.6 0.0
28/09:30am 17.1 11.0 9.8 62 3.8 WNW 32 39 17 21 1023.3 - 0.0
28/09:00am 16.4 11.7 10.7 69 3.0 W 26 33 14 18 1023.1 1023.1 0.6
28/08:30am 16.1 10.7 10.8 71 2.8 W 30 41 16 22 1022.9 - 0.6
28/08:00am 15.5 11.1 10.3 71 2.7 WSW 24 35 13 19 1022.4 1022.4 0.6
28/07:30am 15.3 10.8 10.1 71 2.7 WSW 24 33 13 18 1022.1 - 0.4
28/07:00am 14.9 9.3 10.3 74 2.4 W 30 43 16 23 1022.0 1022.0 0.4
28/06:30am 15.9 10.5 9.6 66 3.3 W 28 41 15 22 1021.8 - 0.4
28/06:00am 15.9 9.8 9.6 66 3.3 W 32 39 17 21 1021.6 1021.6 0.4
28/05:30am 16.0 10.0 8.5 61 3.8 W 30 43 16 23 1021.4 - 0.4
28/05:00am 16.3 9.8 8.3 59 4.1 W 32 41 17 22 1021.5 1021.5 0.4
28/04:30am 15.9 10.7 7.4 57 4.2 W 24 37 13 20 1021.5 - 0.4
28/04:00am 16.1 9.6 8.3 60 3.9 W 32 43 17 23 1021.4 1021.4 0.4
28/03:30am 16.4 10.1 9.8 65 3.5 W 33 46 18 25 1021.7 - 0.4
28/03:00am 16.3 10.7 8.8 61 3.8 W 28 39 15 21 1021.8 1021.8 0.4
28/02:30am 16.2 10.0 7.7 57 4.3 W 30 41 16 22 1022.0 - 0.4
28/02:00am 16.3 10.5 8.0 58 4.2 W 28 39 15 21 1021.9 1021.9 0.4
28/01:30am 15.9 10.8 7.7 58 4.1 W 24 35 13 19 1021.9 - 0.4
28/01:00am 16.0 9.9 6.7 54 4.5 W 28 41 15 22 1022.1 1022.1 0.4
28/12:30am 16.2 10.1 8.2 59 4.1 W 30 41 16 22 1022.1 - 0.4
28/12:00am 16.2 9.6 8.7 61 3.8 W 33 43 18 23 1022.2 1022.2 0.4
 
Date/Time
WST
Tmp

°C
App
Tmp
°C
Dew
Point
°C
Rel
Hum
%
Delta-T

°C
Wind Press
QNH
hPa
Press
MSL
hPa
Rain
since
9 am
mm
Dir
 
Spd
km/h
Gust
km/h
Spd
kts
Gust
kts
27/11:30pm 16.2 10.4 9.6 65 3.4 W 30 37 16 20 1022.4 - 0.4
27/11:00pm 16.4 10.6 9.3 63 3.7 W 30 41 16 22 1022.6 1022.6 0.4
27/10:30pm 16.3 10.8 9.0 62 3.8 W 28 41 15 22 1022.5 - 0.4
27/10:00pm 16.3 10.7 7.3 55 4.5 W 26 37 14 20 1022.5 1022.5 0.4
27/09:30pm 16.3 10.1 7.8 57 4.3 W 30 41 16 22 1022.7 - 0.4
27/09:00pm 15.9 10.6 10.0 68 3.1 W 28 41 15 22 1022.6 1022.6 0.4
27/08:30pm 16.3 11.9 9.0 62 3.8 W 22 32 12 17 1022.9 - 0.4
27/08:00pm 15.9 11.6 9.3 65 3.4 W 22 30 12 16 1022.7 1022.7 0.4
27/07:30pm 16.2 12.0 9.8 66 3.4 W 22 32 12 17 1022.4 - 0.4
27/07:00pm 16.1 12.2 9.5 65 3.4 W 20 30 11 16 1022.2 1022.2 0.4
27/06:30pm 16.3 11.1 10.2 67 3.2 WSW 28 39 15 21 1021.9 - 0.4
27/06:00pm 16.2 11.7 8.7 61 3.8 W 22 30 12 16 1021.6 1021.6 0.4
27/05:30pm 16.5 11.2 9.9 65 3.5 WSW 28 37 15 20 1021.4 - 0.4
27/05:00pm 17.1 11.4 8.5 57 4.4 W 28 35 15 19 1021.1 1021.1 0.4

Latest Capital City Observations: Canberra | Sydney | Melbourne | Brisbane | Adelaide | Perth | Hobart | Darwin

Other Formats:

Comma delimited format used in spreadsheet applications
http://www.bom.gov.au/fwo/IDW60901/IDW60901.94602.axf

JavaScript Object Notation format (JSON) in row-major order
http://www.bom.gov.au/fwo/IDW60901/IDW60901.94602.json